Clements, Kansas
Current Conditions -  °F | °C
As of 11:53 PM on Thursday 18 Dec 2014 (Local Time) from KEMP Reporting Station
Haze Haze  
Wind Chill: 30°   Ceiling: 500
Heat Index: 30°   Visibility: 6mi
Dew Point: 29°   Wind: 0mph
Humidity: 96%   Direction: NA
Pressure: 30.25"   Gusts: NA
Location:  38.2898°N, 96.7469°W
Report Text: KEMP 190553Z AUTO 00000KT 6SM BR OVC005 M01/M02 A3025 RMK AO2 SLP258 T10111017 10000 21011 400001028 51008
Loading
Personal Weather Stations






























Interactive Weather Map New forecast layout! Learn more

10-Day Weather Forecast

Advertisements
Track Severe Weather on mobile